Wataga, Illinois
Current Conditions -  °F | °C
As of 1:55 AM on Wednesday 26 Nov 2014 (Local Time) from KGBG Reporting Station
Clear Clear  
Wind Chill: 13°   Ceiling: Unl
Heat Index: 19°   Visibility: 10mi
Dew Point: 18°   Wind: 5mph
Humidity: 96%   Direction: 110°ESE
Pressure: 30.1"   Gusts: NA
Location:  41.03°N, 90.28°W
Report Text: KGBG 260755Z AUTO 11004KT 10SM CLR M07/M08 A3010 RMK AO2 T10701076
Loading
Personal Weather Stations






























Interactive Weather Map New forecast layout! Learn more

10-Day Weather Forecast

Advertisements
Track Severe Weather on mobile